sensor_id;sensor_type;location;lat;lon;timestamp;P1;durP1;ratioP1;P2;durP2;ratioP2
57832;SDS011;43667;53.036;6.740;2023-11-21T00:00:26;49.03;;;17.20;;
57832;SDS011;43667;53.036;6.740;2023-11-21T00:02:52;55.92;;;18.15;;
57832;SDS011;43667;53.036;6.740;2023-11-21T00:05:18;54.53;;;18.80;;
57832;SDS011;43667;53.036;6.740;2023-11-21T00:07:44;48.15;;;17.83;;
57832;SDS011;43667;53.036;6.740;2023-11-21T00:10:10;60.38;;;18.58;;
57832;SDS011;43667;53.036;6.740;2023-11-21T00:12:39;50.80;;;18.10;;
57832;SDS011;43667;53.036;6.740;2023-11-21T00:15:07;47.17;;;17.45;;
57832;SDS011;43667;53.036;6.740;2023-11-21T00:17:36;61.60;;;18.88;;
57832;SDS011;43667;53.036;6.740;2023-11-21T00:20:03;57.33;;;18.92;;
57832;SDS011;43667;53.036;6.740;2023-11-21T00:22:31;62.97;;;19.85;;
57832;SDS011;43667;53.036;6.740;2023-11-21T00:24:57;63.58;;;20.90;;
57832;SDS011;43667;53.036;6.740;2023-11-21T00:27:23;57.22;;;19.98;;
57832;SDS011;43667;53.036;6.740;2023-11-21T00:29:49;65.70;;;21.60;;
57832;SDS011;43667;53.036;6.740;2023-11-21T00:32:15;72.28;;;20.73;;
57832;SDS011;43667;53.036;6.740;2023-11-21T00:34:41;65.82;;;20.02;;
57832;SDS011;43667;53.036;6.740;2023-11-21T00:37:07;62.72;;;20.08;;
57832;SDS011;43667;53.036;6.740;2023-11-21T00:39:33;66.35;;;19.98;;
57832;SDS011;43667;53.036;6.740;2023-11-21T00:42:00;71.63;;;19.00;;
57832;SDS011;43667;53.036;6.740;2023-11-21T00:44:26;78.65;;;22.15;;
57832;SDS011;43667;53.036;6.740;2023-11-21T00:46:52;64.85;;;21.50;;
57832;SDS011;43667;53.036;6.740;2023-11-21T00:49:19;57.13;;;19.33;;
57832;SDS011;43667;53.036;6.740;2023-11-21T00:51:45;64.50;;;20.92;;
57832;SDS011;43667;53.036;6.740;2023-11-21T00:54:11;52.17;;;18.30;;
57832;SDS011;43667;53.036;6.740;2023-11-21T00:56:37;77.28;;;20.85;;
57832;SDS011;43667;53.036;6.740;2023-11-21T00:59:05;70.07;;;20.02;;
57832;SDS011;43667;53.036;6.740;2023-11-21T01:01:32;76.38;;;20.08;;
57832;SDS011;43667;53.036;6.740;2023-11-21T01:03:58;71.07;;;20.60;;
57832;SDS011;43667;53.036;6.740;2023-11-21T01:06:24;78.07;;;21.13;;
57832;SDS011;43667;53.036;6.740;2023-11-21T01:08:50;80.50;;;21.80;;
57832;SDS011;43667;53.036;6.740;2023-11-21T01:11:16;49.45;;;18.65;;
57832;SDS011;43667;53.036;6.740;2023-11-21T01:13:42;78.28;;;22.30;;
57832;SDS011;43667;53.036;6.740;2023-11-21T01:16:09;71.95;;;22.13;;
57832;SDS011;43667;53.036;6.740;2023-11-21T01:18:36;68.53;;;22.00;;
57832;SDS011;43667;53.036;6.740;2023-11-21T01:21:02;65.22;;;23.13;;
57832;SDS011;43667;53.036;6.740;2023-11-21T01:23:28;72.45;;;23.77;;
57832;SDS011;43667;53.036;6.740;2023-11-21T01:25:57;74.88;;;22.48;;
57832;SDS011;43667;53.036;6.740;2023-11-21T01:28:23;70.60;;;23.13;;
57832;SDS011;43667;53.036;6.740;2023-11-21T01:30:49;73.90;;;22.52;;
57832;SDS011;43667;53.036;6.740;2023-11-21T01:33:16;71.45;;;22.60;;
57832;SDS011;43667;53.036;6.740;2023-11-21T01:35:42;73.97;;;22.52;;
57832;SDS011;43667;53.036;6.740;2023-11-21T01:38:08;89.28;;;24.38;;
57832;SDS011;43667;53.036;6.740;2023-11-21T01:40:34;89.65;;;24.55;;
57832;SDS011;43667;53.036;6.740;2023-11-21T01:43:00;76.30;;;24.25;;
57832;SDS011;43667;53.036;6.740;2023-11-21T01:45:29;73.78;;;23.63;;
57832;SDS011;43667;53.036;6.740;2023-11-21T01:47:59;105.80;;;24.80;;
57832;SDS011;43667;53.036;6.740;2023-11-21T01:50:25;82.55;;;24.95;;
57832;SDS011;43667;53.036;6.740;2023-11-21T01:52:52;81.07;;;24.45;;
57832;SDS011;43667;53.036;6.740;2023-11-21T01:55:18;88.13;;;24.80;;
57832;SDS011;43667;53.036;6.740;2023-11-21T01:57:47;92.13;;;25.38;;
57832;SDS011;43667;53.036;6.740;2023-11-21T02:00:14;83.78;;;26.33;;
57832;SDS011;43667;53.036;6.740;2023-11-21T02:02:43;99.18;;;26.48;;
57832;SDS011;43667;53.036;6.740;2023-11-21T02:05:10;92.88;;;25.70;;
57832;SDS011;43667;53.036;6.740;2023-11-21T02:07:37;97.25;;;26.27;;
57832;SDS011;43667;53.036;6.740;2023-11-21T02:10:04;100.75;;;26.55;;
57832;SDS011;43667;53.036;6.740;2023-11-21T02:12:30;88.30;;;24.63;;
57832;SDS011;43667;53.036;6.740;2023-11-21T02:14:56;110.55;;;27.20;;
57832;SDS011;43667;53.036;6.740;2023-11-21T02:17:22;101.93;;;26.33;;
57832;SDS011;43667;53.036;6.740;2023-11-21T02:19:48;122.32;;;28.85;;
57832;SDS011;43667;53.036;6.740;2023-11-21T02:22:16;107.47;;;28.92;;
57832;SDS011;43667;53.036;6.740;2023-11-21T02:24:43;121.10;;;27.65;;
57832;SDS011;43667;53.036;6.740;2023-11-21T02:27:09;119.97;;;27.92;;
57832;SDS011;43667;53.036;6.740;2023-11-21T02:29:35;103.20;;;26.50;;
57832;SDS011;43667;53.036;6.740;2023-11-21T02:32:01;116.03;;;29.05;;
57832;SDS011;43667;53.036;6.740;2023-11-21T02:34:27;123.63;;;29.80;;
57832;SDS011;43667;53.036;6.740;2023-11-21T02:36:53;116.40;;;28.05;;
57832;SDS011;43667;53.036;6.740;2023-11-21T02:39:19;91.60;;;27.60;;
57832;SDS011;43667;53.036;6.740;2023-11-21T02:41:49;121.90;;;29.13;;
57832;SDS011;43667;53.036;6.740;2023-11-21T02:44:15;138.75;;;30.95;;
57832;SDS011;43667;53.036;6.740;2023-11-21T02:46:41;121.90;;;28.15;;
57832;SDS011;43667;53.036;6.740;2023-11-21T02:49:08;95.35;;;25.95;;
57832;SDS011;43667;53.036;6.740;2023-11-21T02:51:36;109.57;;;28.13;;
57832;SDS011;43667;53.036;6.740;2023-11-21T02:54:03;117.00;;;30.15;;
57832;SDS011;43667;53.036;6.740;2023-11-21T02:56:31;115.30;;;28.88;;
57832;SDS011;43667;53.036;6.740;2023-11-21T02:58:58;118.85;;;30.02;;
57832;SDS011;43667;53.036;6.740;2023-11-21T03:01:25;120.78;;;30.42;;
57832;SDS011;43667;53.036;6.740;2023-11-21T03:03:51;133.27;;;29.67;;
57832;SDS011;43667;53.036;6.740;2023-11-21T03:06:17;142.18;;;30.80;;
57832;SDS011;43667;53.036;6.740;2023-11-21T03:08:44;132.50;;;29.90;;
57832;SDS011;43667;53.036;6.740;2023-11-21T03:11:10;120.95;;;30.17;;
57832;SDS011;43667;53.036;6.740;2023-11-21T03:13:35;134.75;;;32.00;;
57832;SDS011;43667;53.036;6.740;2023-11-21T03:16:01;145.95;;;32.63;;
57832;SDS011;43667;53.036;6.740;2023-11-21T03:18:27;128.77;;;30.70;;
57832;SDS011;43667;53.036;6.740;2023-11-21T03:20:54;144.63;;;30.80;;
57832;SDS011;43667;53.036;6.740;2023-11-21T03:23:20;132.50;;;28.85;;
57832;SDS011;43667;53.036;6.740;2023-11-21T03:25:46;177.52;;;34.67;;
57832;SDS011;43667;53.036;6.740;2023-11-21T03:28:12;141.32;;;30.70;;
57832;SDS011;43667;53.036;6.740;2023-11-21T03:30:38;152.40;;;31.42;;
57832;SDS011;43667;53.036;6.740;2023-11-21T03:33:04;170.02;;;34.03;;
57832;SDS011;43667;53.036;6.740;2023-11-21T03:35:30;140.90;;;32.95;;
57832;SDS011;43667;53.036;6.740;2023-11-21T03:37:56;106.38;;;27.95;;
57832;SDS011;43667;53.036;6.740;2023-11-21T03:40:22;132.93;;;30.77;;
57832;SDS011;43667;53.036;6.740;2023-11-21T03:42:48;147.32;;;32.42;;
57832;SDS011;43667;53.036;6.740;2023-11-21T03:45:14;150.25;;;32.95;;
57832;SDS011;43667;53.036;6.740;2023-11-21T03:47:41;140.55;;;32.63;;
57832;SDS011;43667;53.036;6.740;2023-11-21T03:50:07;126.35;;;30.60;;
57832;SDS011;43667;53.036;6.740;2023-11-21T03:52:34;208.82;;;35.88;;
57832;SDS011;43667;53.036;6.740;2023-11-21T03:55:03;156.35;;;32.80;;
57832;SDS011;43667;53.036;6.740;2023-11-21T03:57:29;169.90;;;32.63;;
57832;SDS011;43667;53.036;6.740;2023-11-21T03:59:55;134.20;;;30.85;;
57832;SDS011;43667;53.036;6.740;2023-11-21T04:02:21;162.70;;;33.05;;
57832;SDS011;43667;53.036;6.740;2023-11-21T04:04:47;154.52;;;32.65;;
57832;SDS011;43667;53.036;6.740;2023-11-21T04:07:13;193.40;;;36.10;;
57832;SDS011;43667;53.036;6.740;2023-11-21T04:09:39;238.57;;;38.47;;
57832;SDS011;43667;53.036;6.740;2023-11-21T04:12:06;115.35;;;29.67;;
57832;SDS011;43667;53.036;6.740;2023-11-21T04:14:34;206.63;;;34.28;;
57832;SDS011;43667;53.036;6.740;2023-11-21T04:17:00;154.45;;;32.03;;
57832;SDS011;43667;53.036;6.740;2023-11-21T04:19:26;218.05;;;35.47;;
57832;SDS011;43667;53.036;6.740;2023-11-21T04:21:52;146.30;;;31.33;;
57832;SDS011;43667;53.036;6.740;2023-11-21T04:24:18;162.65;;;32.40;;
57832;SDS011;43667;53.036;6.740;2023-11-21T04:26:44;130.98;;;31.95;;
57832;SDS011;43667;53.036;6.740;2023-11-21T04:29:10;158.73;;;32.20;;
57832;SDS011;43667;53.036;6.740;2023-11-21T04:31:36;177.07;;;35.95;;
57832;SDS011;43667;53.036;6.740;2023-11-21T04:34:02;169.95;;;35.78;;
57832;SDS011;43667;53.036;6.740;2023-11-21T04:36:29;180.30;;;33.58;;
57832;SDS011;43667;53.036;6.740;2023-11-21T04:38:55;240.80;;;38.78;;
57832;SDS011;43667;53.036;6.740;2023-11-21T04:41:21;223.57;;;37.33;;
57832;SDS011;43667;53.036;6.740;2023-11-21T04:43:47;179.52;;;34.35;;
57832;SDS011;43667;53.036;6.740;2023-11-21T04:46:14;218.38;;;38.25;;
57832;SDS011;43667;53.036;6.740;2023-11-21T04:48:40;177.57;;;36.60;;
57832;SDS011;43667;53.036;6.740;2023-11-21T04:51:06;144.63;;;34.80;;
57832;SDS011;43667;53.036;6.740;2023-11-21T04:53:32;181.02;;;37.72;;
57832;SDS011;43667;53.036;6.740;2023-11-21T04:55:59;120.07;;;33.85;;
57832;SDS011;43667;53.036;6.740;2023-11-21T04:58:25;142.40;;;34.85;;
57832;SDS011;43667;53.036;6.740;2023-11-21T05:00:51;150.48;;;36.10;;
57832;SDS011;43667;53.036;6.740;2023-11-21T05:03:17;145.80;;;36.85;;
57832;SDS011;43667;53.036;6.740;2023-11-21T05:05:43;155.63;;;36.53;;
57832;SDS011;43667;53.036;6.740;2023-11-21T05:08:09;165.98;;;37.90;;
57832;SDS011;43667;53.036;6.740;2023-11-21T05:10:35;141.50;;;35.92;;
57832;SDS011;43667;53.036;6.740;2023-11-21T05:13:03;157.15;;;35.83;;
57832;SDS011;43667;53.036;6.740;2023-11-21T05:15:29;112.57;;;34.63;;
57832;SDS011;43667;53.036;6.740;2023-11-21T05:17:55;142.35;;;36.38;;
57832;SDS011;43667;53.036;6.740;2023-11-21T05:20:25;135.02;;;34.90;;
57832;SDS011;43667;53.036;6.740;2023-11-21T05:22:51;138.45;;;37.30;;
57832;SDS011;43667;53.036;6.740;2023-11-21T05:25:17;102.88;;;33.10;;
57832;SDS011;43667;53.036;6.740;2023-11-21T05:27:46;94.05;;;32.33;;
57832;SDS011;43667;53.036;6.740;2023-11-21T05:30:12;111.80;;;34.20;;
57832;SDS011;43667;53.036;6.740;2023-11-21T05:32:39;118.85;;;35.30;;
57832;SDS011;43667;53.036;6.740;2023-11-21T05:35:07;92.75;;;33.63;;
57832;SDS011;43667;53.036;6.740;2023-11-21T05:37:44;99.05;;;33.33;;
57832;SDS011;43667;53.036;6.740;2023-11-21T05:40:10;106.60;;;33.40;;
57832;SDS011;43667;53.036;6.740;2023-11-21T05:42:38;129.70;;;37.08;;
57832;SDS011;43667;53.036;6.740;2023-11-21T05:45:04;106.97;;;33.90;;
57832;SDS011;43667;53.036;6.740;2023-11-21T05:47:37;92.53;;;33.20;;
57832;SDS011;43667;53.036;6.740;2023-11-21T05:50:04;134.30;;;36.40;;
57832;SDS011;43667;53.036;6.740;2023-11-21T05:52:30;130.73;;;36.15;;
57832;SDS011;43667;53.036;6.740;2023-11-21T05:54:57;108.85;;;35.15;;
57832;SDS011;43667;53.036;6.740;2023-11-21T05:57:23;106.68;;;32.92;;
57832;SDS011;43667;53.036;6.740;2023-11-21T05:59:49;123.82;;;33.85;;
57832;SDS011;43667;53.036;6.740;2023-11-21T06:02:16;105.57;;;32.13;;
57832;SDS011;43667;53.036;6.740;2023-11-21T06:04:43;78.75;;;29.77;;
57832;SDS011;43667;53.036;6.740;2023-11-21T06:07:09;69.43;;;25.63;;
57832;SDS011;43667;53.036;6.740;2023-11-21T06:09:35;67.68;;;23.70;;
57832;SDS011;43667;53.036;6.740;2023-11-21T06:12:02;39.60;;;18.05;;
57832;SDS011;43667;53.036;6.740;2023-11-21T06:14:29;40.10;;;18.38;;
57832;SDS011;43667;53.036;6.740;2023-11-21T06:16:55;41.65;;;17.13;;
57832;SDS011;43667;53.036;6.740;2023-11-21T06:19:22;39.85;;;18.15;;
57832;SDS011;43667;53.036;6.740;2023-11-21T06:21:48;41.05;;;16.70;;
57832;SDS011;43667;53.036;6.740;2023-11-21T06:24:14;40.45;;;17.15;;
57832;SDS011;43667;53.036;6.740;2023-11-21T06:26:40;35.90;;;16.13;;
57832;SDS011;43667;53.036;6.740;2023-11-21T06:29:06;34.88;;;17.08;;
57832;SDS011;43667;53.036;6.740;2023-11-21T06:31:32;34.42;;;16.90;;
57832;SDS011;43667;53.036;6.740;2023-11-21T06:33:58;42.78;;;16.88;;
57832;SDS011;43667;53.036;6.740;2023-11-21T06:36:28;40.90;;;18.83;;
57832;SDS011;43667;53.036;6.740;2023-11-21T06:38:54;39.50;;;18.35;;
57832;SDS011;43667;53.036;6.740;2023-11-21T06:41:20;39.00;;;19.35;;
57832;SDS011;43667;53.036;6.740;2023-11-21T06:43:46;40.67;;;21.02;;
57832;SDS011;43667;53.036;6.740;2023-11-21T06:46:12;44.78;;;20.77;;
57832;SDS011;43667;53.036;6.740;2023-11-21T06:48:40;47.75;;;22.05;;
57832;SDS011;43667;53.036;6.740;2023-11-21T06:51:06;38.05;;;20.10;;
57832;SDS011;43667;53.036;6.740;2023-11-21T06:53:32;46.58;;;20.70;;
57832;SDS011;43667;53.036;6.740;2023-11-21T06:55:58;46.90;;;20.88;;
57832;SDS011;43667;53.036;6.740;2023-11-21T06:58:24;45.92;;;21.67;;
57832;SDS011;43667;53.036;6.740;2023-11-21T07:00:50;46.67;;;21.67;;
57832;SDS011;43667;53.036;6.740;2023-11-21T07:03:17;49.38;;;21.80;;
57832;SDS011;43667;53.036;6.740;2023-11-21T07:05:44;45.22;;;20.20;;
57832;SDS011;43667;53.036;6.740;2023-11-21T07:08:10;47.30;;;21.17;;
57832;SDS011;43667;53.036;6.740;2023-11-21T07:10:37;49.03;;;21.30;;
57832;SDS011;43667;53.036;6.740;2023-11-21T07:13:03;60.08;;;22.42;;
57832;SDS011;43667;53.036;6.740;2023-11-21T07:15:29;61.92;;;22.27;;
57832;SDS011;43667;53.036;6.740;2023-11-21T07:17:55;78.40;;;24.65;;
57832;SDS011;43667;53.036;6.740;2023-11-21T07:20:22;73.15;;;24.35;;
57832;SDS011;43667;53.036;6.740;2023-11-21T07:22:48;76.60;;;25.55;;
57832;SDS011;43667;53.036;6.740;2023-11-21T07:25:14;62.92;;;22.80;;
57832;SDS011;43667;53.036;6.740;2023-11-21T07:27:41;79.32;;;25.83;;
57832;SDS011;43667;53.036;6.740;2023-11-21T07:30:07;80.88;;;25.80;;
57832;SDS011;43667;53.036;6.740;2023-11-21T07:32:35;93.38;;;26.35;;
57832;SDS011;43667;53.036;6.740;2023-11-21T07:35:00;83.28;;;25.70;;
57832;SDS011;43667;53.036;6.740;2023-11-21T07:37:27;89.03;;;26.80;;
57832;SDS011;43667;53.036;6.740;2023-11-21T07:39:53;79.50;;;26.52;;
57832;SDS011;43667;53.036;6.740;2023-11-21T07:42:22;74.72;;;25.55;;
57832;SDS011;43667;53.036;6.740;2023-11-21T07:44:48;73.00;;;25.60;;
57832;SDS011;43667;53.036;6.740;2023-11-21T07:47:15;66.32;;;25.33;;
57832;SDS011;43667;53.036;6.740;2023-11-21T07:49:41;68.82;;;25.10;;
57832;SDS011;43667;53.036;6.740;2023-11-21T07:52:08;58.53;;;24.60;;
57832;SDS011;43667;53.036;6.740;2023-11-21T07:54:34;60.70;;;25.65;;
57832;SDS011;43667;53.036;6.740;2023-11-21T07:57:01;60.55;;;24.27;;
57832;SDS011;43667;53.036;6.740;2023-11-21T07:59:29;60.95;;;26.73;;
57832;SDS011;43667;53.036;6.740;2023-11-21T08:01:55;64.72;;;25.13;;
57832;SDS011;43667;53.036;6.740;2023-11-21T08:04:21;59.20;;;26.42;;
57832;SDS011;43667;53.036;6.740;2023-11-21T08:06:48;70.70;;;29.15;;
57832;SDS011;43667;53.036;6.740;2023-11-21T08:09:14;66.63;;;29.30;;
57832;SDS011;43667;53.036;6.740;2023-11-21T08:11:42;64.82;;;30.30;;
57832;SDS011;43667;53.036;6.740;2023-11-21T08:14:08;62.70;;;28.70;;
57832;SDS011;43667;53.036;6.740;2023-11-21T08:16:34;54.67;;;29.08;;
57832;SDS011;43667;53.036;6.740;2023-11-21T08:19:00;52.42;;;29.13;;
57832;SDS011;43667;53.036;6.740;2023-11-21T08:21:27;55.75;;;29.50;;
57832;SDS011;43667;53.036;6.740;2023-11-21T08:23:54;58.67;;;29.48;;
57832;SDS011;43667;53.036;6.740;2023-11-21T08:26:21;57.15;;;31.67;;
57832;SDS011;43667;53.036;6.740;2023-11-21T08:28:47;58.40;;;31.20;;
57832;SDS011;43667;53.036;6.740;2023-11-21T08:31:13;57.00;;;30.85;;
57832;SDS011;43667;53.036;6.740;2023-11-21T08:33:39;61.00;;;31.65;;
57832;SDS011;43667;53.036;6.740;2023-11-21T08:36:09;57.20;;;33.00;;
57832;SDS011;43667;53.036;6.740;2023-11-21T08:38:36;54.15;;;31.42;;
57832;SDS011;43667;53.036;6.740;2023-11-21T08:41:06;57.40;;;30.90;;
57832;SDS011;43667;53.036;6.740;2023-11-21T08:43:35;49.60;;;30.52;;
57832;SDS011;43667;53.036;6.740;2023-11-21T08:46:05;54.70;;;31.23;;
57832;SDS011;43667;53.036;6.740;2023-11-21T08:48:31;41.92;;;29.88;;
57832;SDS011;43667;53.036;6.740;2023-11-21T08:50:57;47.28;;;30.48;;
57832;SDS011;43667;53.036;6.740;2023-11-21T08:53:24;42.38;;;28.90;;
57832;SDS011;43667;53.036;6.740;2023-11-21T08:55:51;43.30;;;28.88;;
57832;SDS011;43667;53.036;6.740;2023-11-21T08:58:18;39.50;;;27.77;;
57832;SDS011;43667;53.036;6.740;2023-11-21T09:00:44;33.17;;;26.60;;
57832;SDS011;43667;53.036;6.740;2023-11-21T09:03:11;34.17;;;25.65;;
57832;SDS011;43667;53.036;6.740;2023-11-21T09:05:37;29.90;;;24.35;;
57832;SDS011;43667;53.036;6.740;2023-11-21T09:08:04;29.23;;;23.90;;
57832;SDS011;43667;53.036;6.740;2023-11-21T09:10:30;30.35;;;24.38;;
57832;SDS011;43667;53.036;6.740;2023-11-21T09:12:57;29.63;;;24.50;;
57832;SDS011;43667;53.036;6.740;2023-11-21T09:15:24;31.85;;;24.48;;
57832;SDS011;43667;53.036;6.740;2023-11-21T09:17:50;28.92;;;23.80;;
57832;SDS011;43667;53.036;6.740;2023-11-21T09:20:16;30.38;;;23.80;;
57832;SDS011;43667;53.036;6.740;2023-11-21T09:22:42;27.08;;;23.05;;
57832;SDS011;43667;53.036;6.740;2023-11-21T09:25:09;26.95;;;22.35;;
57832;SDS011;43667;53.036;6.740;2023-11-21T09:27:36;28.02;;;21.65;;
57832;SDS011;43667;53.036;6.740;2023-11-21T09:30:02;28.77;;;22.02;;
57832;SDS011;43667;53.036;6.740;2023-11-21T09:32:30;30.17;;;22.33;;
57832;SDS011;43667;53.036;6.740;2023-11-21T09:34:56;32.75;;;23.52;;
57832;SDS011;43667;53.036;6.740;2023-11-21T09:37:23;25.98;;;21.05;;
57832;SDS011;43667;53.036;6.740;2023-11-21T09:39:51;24.20;;;18.40;;
57832;SDS011;43667;53.036;6.740;2023-11-21T09:42:30;23.38;;;19.05;;
57832;SDS011;43667;53.036;6.740;2023-11-21T09:45:05;23.70;;;18.10;;
57832;SDS011;43667;53.036;6.740;2023-11-21T09:47:35;24.15;;;19.63;;
57832;SDS011;43667;53.036;6.740;2023-11-21T09:50:03;25.35;;;18.88;;
57832;SDS011;43667;53.036;6.740;2023-11-21T09:52:33;24.42;;;18.75;;
57832;SDS011;43667;53.036;6.740;2023-11-21T09:55:02;22.42;;;18.58;;
57832;SDS011;43667;53.036;6.740;2023-11-21T09:57:30;19.98;;;16.50;;
57832;SDS011;43667;53.036;6.740;2023-11-21T09:59:56;20.15;;;15.82;;
57832;SDS011;43667;53.036;6.740;2023-11-21T10:02:28;19.85;;;16.52;;
57832;SDS011;43667;53.036;6.740;2023-11-21T10:04:56;16.42;;;14.73;;
57832;SDS011;43667;53.036;6.740;2023-11-21T10:07:22;16.15;;;14.13;;
57832;SDS011;43667;53.036;6.740;2023-11-21T10:09:48;17.58;;;13.73;;
57832;SDS011;43667;53.036;6.740;2023-11-21T10:12:16;16.77;;;14.23;;
57832;SDS011;43667;53.036;6.740;2023-11-21T10:14:43;14.18;;;12.68;;
57832;SDS011;43667;53.036;6.740;2023-11-21T10:17:13;13.60;;;11.18;;
57832;SDS011;43667;53.036;6.740;2023-11-21T10:19:41;12.38;;;11.07;;
57832;SDS011;43667;53.036;6.740;2023-11-21T10:22:08;12.23;;;10.57;;
57832;SDS011;43667;53.036;6.740;2023-11-21T10:24:34;10.90;;;9.80;;
57832;SDS011;43667;53.036;6.740;2023-11-21T10:27:02;10.57;;;9.43;;
57832;SDS011;43667;53.036;6.740;2023-11-21T10:29:31;10.90;;;9.45;;
57832;SDS011;43667;53.036;6.740;2023-11-21T10:32:01;12.63;;;9.73;;
57832;SDS011;43667;53.036;6.740;2023-11-21T10:34:27;11.25;;;8.68;;
57832;SDS011;43667;53.036;6.740;2023-11-21T10:36:53;10.20;;;9.07;;
57832;SDS011;43667;53.036;6.740;2023-11-21T10:39:23;10.65;;;9.25;;
57832;SDS011;43667;53.036;6.740;2023-11-21T10:41:52;11.48;;;8.65;;
57832;SDS011;43667;53.036;6.740;2023-11-21T10:44:19;9.07;;;8.02;;
57832;SDS011;43667;53.036;6.740;2023-11-21T10:46:52;10.43;;;8.70;;
57832;SDS011;43667;53.036;6.740;2023-11-21T10:49:21;11.98;;;9.60;;
57832;SDS011;43667;53.036;6.740;2023-11-21T10:51:50;9.35;;;7.90;;
57832;SDS011;43667;53.036;6.740;2023-11-21T10:54:18;9.65;;;8.30;;
57832;SDS011;43667;53.036;6.740;2023-11-21T10:56:45;10.02;;;8.05;;
57832;SDS011;43667;53.036;6.740;2023-11-21T10:59:12;13.10;;;8.65;;
57832;SDS011;43667;53.036;6.740;2023-11-21T11:01:41;9.93;;;8.10;;
57832;SDS011;43667;53.036;6.740;2023-11-21T11:04:08;9.82;;;8.38;;
57832;SDS011;43667;53.036;6.740;2023-11-21T11:06:40;10.07;;;8.13;;
57832;SDS011;43667;53.036;6.740;2023-11-21T11:09:06;8.70;;;7.80;;
57832;SDS011;43667;53.036;6.740;2023-11-21T11:11:33;8.63;;;7.53;;
57832;SDS011;43667;53.036;6.740;2023-11-21T11:14:03;10.68;;;7.72;;
57832;SDS011;43667;53.036;6.740;2023-11-21T11:16:29;9.90;;;8.02;;
57832;SDS011;43667;53.036;6.740;2023-11-21T11:18:56;10.75;;;7.95;;
57832;SDS011;43667;53.036;6.740;2023-11-21T11:21:26;7.68;;;6.80;;
57832;SDS011;43667;53.036;6.740;2023-11-21T11:36:36;9.35;;;7.80;;
57832;SDS011;43667;53.036;6.740;2023-11-21T11:39:03;9.80;;;8.60;;
57832;SDS011;43667;53.036;6.740;2023-11-21T11:41:30;9.02;;;6.85;;
57832;SDS011;43667;53.036;6.740;2023-11-21T11:44:02;9.05;;;7.03;;
57832;SDS011;43667;53.036;6.740;2023-11-21T11:46:40;8.48;;;7.18;;
57832;SDS011;43667;53.036;6.740;2023-11-21T11:49:06;7.90;;;6.88;;
57832;SDS011;43667;53.036;6.740;2023-11-21T11:51:33;8.48;;;6.78;;
57832;SDS011;43667;53.036;6.740;2023-11-21T11:54:01;8.35;;;7.18;;
57832;SDS011;43667;53.036;6.740;2023-11-21T11:56:31;9.98;;;7.20;;
57832;SDS011;43667;53.036;6.740;2023-11-21T11:59:00;7.88;;;6.65;;
57832;SDS011;43667;53.036;6.740;2023-11-21T12:01:27;8.27;;;6.50;;
57832;SDS011;43667;53.036;6.740;2023-11-21T12:06:39;10.05;;;6.90;;
57832;SDS011;43667;53.036;6.740;2023-11-21T12:09:06;9.82;;;7.72;;
57832;SDS011;43667;53.036;6.740;2023-11-21T12:11:32;8.45;;;6.78;;
57832;SDS011;43667;53.036;6.740;2023-11-21T12:14:01;8.60;;;7.00;;
57832;SDS011;43667;53.036;6.740;2023-11-21T12:16:27;9.52;;;7.28;;
57832;SDS011;43667;53.036;6.740;2023-11-21T12:18:53;10.18;;;7.50;;
57832;SDS011;43667;53.036;6.740;2023-11-21T12:21:20;10.40;;;7.43;;
57832;SDS011;43667;53.036;6.740;2023-11-21T12:23:46;12.85;;;7.57;;
57832;SDS011;43667;53.036;6.740;2023-11-21T12:26:13;8.88;;;7.35;;
57832;SDS011;43667;53.036;6.740;2023-11-21T12:28:39;8.43;;;6.60;;
57832;SDS011;43667;53.036;6.740;2023-11-21T12:31:05;8.10;;;6.55;;
57832;SDS011;43667;53.036;6.740;2023-11-21T12:33:35;7.78;;;6.78;;
57832;SDS011;43667;53.036;6.740;2023-11-21T12:36:01;9.55;;;6.78;;
57832;SDS011;43667;53.036;6.740;2023-11-21T12:38:34;9.00;;;6.78;;
57832;SDS011;43667;53.036;6.740;2023-11-21T12:41:00;7.55;;;6.47;;
57832;SDS011;43667;53.036;6.740;2023-11-21T12:43:26;8.48;;;6.20;;
57832;SDS011;43667;53.036;6.740;2023-11-21T12:46:04;9.73;;;6.95;;
57832;SDS011;43667;53.036;6.740;2023-11-21T12:48:31;9.18;;;6.75;;
57832;SDS011;43667;53.036;6.740;2023-11-21T12:50:57;8.73;;;6.40;;
57832;SDS011;43667;53.036;6.740;2023-11-21T12:53:25;8.23;;;6.30;;
57832;SDS011;43667;53.036;6.740;2023-11-21T12:55:51;8.60;;;5.88;;
57832;SDS011;43667;53.036;6.740;2023-11-21T12:58:17;6.60;;;5.88;;
57832;SDS011;43667;53.036;6.740;2023-11-21T13:00:48;12.30;;;6.93;;
57832;SDS011;43667;53.036;6.740;2023-11-21T13:03:16;7.10;;;5.80;;
57832;SDS011;43667;53.036;6.740;2023-11-21T13:05:45;10.35;;;6.60;;
57832;SDS011;43667;53.036;6.740;2023-11-21T13:08:12;7.35;;;6.25;;
57832;SDS011;43667;53.036;6.740;2023-11-21T13:10:39;8.48;;;6.70;;
57832;SDS011;43667;53.036;6.740;2023-11-21T13:13:07;8.60;;;6.25;;
57832;SDS011;43667;53.036;6.740;2023-11-21T13:15:34;8.70;;;6.63;;
57832;SDS011;43667;53.036;6.740;2023-11-21T13:18:01;10.23;;;7.18;;
57832;SDS011;43667;53.036;6.740;2023-11-21T13:20:28;10.07;;;7.00;;
57832;SDS011;43667;53.036;6.740;2023-11-21T13:22:55;9.48;;;6.38;;
57832;SDS011;43667;53.036;6.740;2023-11-21T13:25:29;10.10;;;6.90;;
57832;SDS011;43667;53.036;6.740;2023-11-21T13:27:57;9.25;;;6.45;;
57832;SDS011;43667;53.036;6.740;2023-11-21T13:30:25;7.90;;;5.82;;
57832;SDS011;43667;53.036;6.740;2023-11-21T13:32:55;8.02;;;5.38;;
57832;SDS011;43667;53.036;6.740;2023-11-21T13:35:22;10.45;;;6.75;;
57832;SDS011;43667;53.036;6.740;2023-11-21T13:37:56;9.35;;;5.85;;
57832;SDS011;43667;53.036;6.740;2023-11-21T13:40:25;8.55;;;5.95;;
57832;SDS011;43667;53.036;6.740;2023-11-21T13:42:52;12.20;;;6.25;;
57832;SDS011;43667;53.036;6.740;2023-11-21T13:45:22;8.40;;;6.00;;
57832;SDS011;43667;53.036;6.740;2023-11-21T13:47:48;7.00;;;5.35;;
57832;SDS011;43667;53.036;6.740;2023-11-21T13:50:17;11.85;;;6.63;;
57832;SDS011;43667;53.036;6.740;2023-11-21T13:52:47;11.98;;;7.00;;
57832;SDS011;43667;53.036;6.740;2023-11-21T13:55:13;10.45;;;7.43;;
57832;SDS011;43667;53.036;6.740;2023-11-21T13:57:44;9.75;;;7.10;;
57832;SDS011;43667;53.036;6.740;2023-11-21T14:00:14;9.75;;;7.13;;
57832;SDS011;43667;53.036;6.740;2023-11-21T14:03:00;10.85;;;6.93;;
57832;SDS011;43667;53.036;6.740;2023-11-21T14:05:27;8.43;;;6.25;;
57832;SDS011;43667;53.036;6.740;2023-11-21T14:07:54;8.85;;;6.72;;
57832;SDS011;43667;53.036;6.740;2023-11-21T14:10:21;10.05;;;7.05;;
57832;SDS011;43667;53.036;6.740;2023-11-21T14:12:49;11.43;;;7.18;;
57832;SDS011;43667;53.036;6.740;2023-11-21T14:15:15;9.13;;;6.53;;
57832;SDS011;43667;53.036;6.740;2023-11-21T14:17:43;8.07;;;5.57;;
57832;SDS011;43667;53.036;6.740;2023-11-21T14:20:10;8.98;;;6.78;;
57832;SDS011;43667;53.036;6.740;2023-11-21T14:22:45;8.52;;;6.72;;
57832;SDS011;43667;53.036;6.740;2023-11-21T14:25:12;9.88;;;5.88;;
57832;SDS011;43667;53.036;6.740;2023-11-21T14:27:39;7.85;;;5.97;;
57832;SDS011;43667;53.036;6.740;2023-11-21T14:30:05;10.23;;;6.28;;
57832;SDS011;43667;53.036;6.740;2023-11-21T14:32:31;10.00;;;6.55;;
57832;SDS011;43667;53.036;6.740;2023-11-21T14:34:57;7.82;;;6.30;;
57832;SDS011;43667;53.036;6.740;2023-11-21T14:37:23;7.63;;;6.32;;